Time;durP1;ratioP1;P1;durP2;ratioP2;P2;SDS_P1;SDS_P2;PMS_P1;PMS_P2;Temp;Humidity;BMP_temperature;BMP_pressure;BME280_temperature;BME280_humidity;BME280_pressure;Samples;Min_cycle;Max_cycle;Signal;HPM_P1;HPM_P2
2023/08/28 00:01:52;;;;;;;5.50;3.45;;;;;;;;;;10357023;28;20555;-63
2023/08/28 00:07:00;;;;;;;4.50;3.50;;;;;;;;;;10358126;28;20063;-63
2023/08/28 00:12:03;;;;;;;5.82;3.45;;;;;;;;;;10358143;28;20079;-63
2023/08/28 00:17:01;;;;;;;5.03;3.50;;;;;;;;;;10357370;28;20063;-64
2023/08/28 00:21:59;;;;;;;6.35;3.67;;;;;;;;;;10343145;28;20044;-62
2023/08/28 00:26:57;;;;;;;3.90;3.10;;;;;;;;;;10356571;28;20090;-63
2023/08/28 00:31:57;;;;;;;5.05;3.22;;;;;;;;;;10338347;28;20076;-63
2023/08/28 00:36:55;;;;;;;5.85;3.85;;;;;;;;;;10334628;28;20106;-63
2023/08/28 00:41:53;;;;;;;4.35;3.47;;;;;;;;;;10338133;28;20079;-64
2023/08/28 00:46:51;;;;;;;4.88;3.03;;;;;;;;;;10337524;28;20075;-64
2023/08/28 00:51:55;;;;;;;7.05;3.30;;;;;;;;;;10356519;28;20063;-63
2023/08/28 00:56:54;;;;;;;8.48;3.40;;;;;;;;;;10336702;28;20416;-63
2023/08/28 01:01:52;;;;;;;6.82;3.20;;;;;;;;;;10354600;28;20075;-63
2023/08/28 01:06:54;;;;;;;6.38;3.33;;;;;;;;;;10354765;28;20075;-64
2023/08/28 01:12:03;;;;;;;5.00;3.70;;;;;;;;;;10335854;28;20071;-62
2023/08/28 01:17:06;;;;;;;5.32;4.05;;;;;;;;;;10323023;28;20074;-62
2023/08/28 01:22:09;;;;;;;8.70;3.45;;;;;;;;;;10337537;28;20059;-63
2023/08/28 01:27:09;;;;;;;4.22;3.15;;;;;;;;;;10354931;28;20102;-63
2023/08/28 01:32:08;;;;;;;6.72;3.28;;;;;;;;;;10354571;28;20074;-63
2023/08/28 01:37:11;;;;;;;4.57;3.20;;;;;;;;;;10335913;28;20386;-63
2023/08/28 01:42:14;;;;;;;4.03;3.20;;;;;;;;;;10341124;28;20079;-63
2023/08/28 01:47:13;;;;;;;7.38;3.83;;;;;;;;;;10354668;28;20071;-63
2023/08/28 01:52:11;;;;;;;4.28;3.88;;;;;;;;;;10355221;28;20056;-63
2023/08/28 01:57:09;;;;;;;11.05;3.75;;;;;;;;;;10336048;28;20071;-63
2023/08/28 02:02:09;;;;;;;6.50;3.60;;;;;;;;;;10336332;28;20036;-63
2023/08/28 02:07:07;;;;;;;5.10;3.58;;;;;;;;;;10351365;28;20075;-63
2023/08/28 02:12:06;;;;;;;7.53;4.00;;;;;;;;;;10335664;28;20762;-63
2023/08/28 02:17:05;;;;;;;6.72;4.05;;;;;;;;;;10338699;28;20051;-63
2023/08/28 02:22:05;;;;;;;4.90;3.95;;;;;;;;;;10342720;28;20040;-62
2023/08/28 02:27:03;;;;;;;12.90;4.22;;;;;;;;;;10343001;28;20092;-62
2023/08/28 02:32:01;;;;;;;16.08;5.00;;;;;;;;;;10361996;28;20539;-62
2023/08/28 02:36:59;;;;;;;8.15;5.63;;;;;;;;;;10360648;28;20063;-63
2023/08/28 02:42:00;;;;;;;13.18;5.68;;;;;;;;;;10342336;28;20072;-63
2023/08/28 02:46:59;;;;;;;8.30;4.53;;;;;;;;;;10361007;28;20076;-63
2023/08/28 02:51:57;;;;;;;6.60;4.88;;;;;;;;;;10328807;28;20052;-62
2023/08/28 02:56:55;;;;;;;6.55;4.40;;;;;;;;;;10359654;28;20067;-63
2023/08/28 03:01:55;;;;;;;4.57;4.10;;;;;;;;;;10316513;28;20458;-64
2023/08/28 03:06:53;;;;;;;8.55;4.40;;;;;;;;;;10346082;28;20072;-63
2023/08/28 03:11:51;;;;;;;6.50;3.88;;;;;;;;;;10326396;28;20044;-64
2023/08/28 03:16:49;;;;;;;5.85;3.85;;;;;;;;;;10329688;28;20533;-62
2023/08/28 03:21:49;;;;;;;6.20;3.80;;;;;;;;;;10359890;28;20064;-63
2023/08/28 03:26:48;;;;;;;6.50;4.30;;;;;;;;;;10359085;28;20087;-63
2023/08/28 03:31:47;;;;;;;13.32;5.30;;;;;;;;;;10355339;28;20079;-63
2023/08/28 03:36:45;;;;;;;7.32;4.72;;;;;;;;;;10340912;28;20072;-63
2023/08/28 03:41:47;;;;;;;6.38;5.18;;;;;;;;;;10358760;28;20079;-63
2023/08/28 03:46:45;;;;;;;5.38;4.65;;;;;;;;;;10339283;28;20079;-63
2023/08/28 03:51:44;;;;;;;12.35;5.50;;;;;;;;;;10340146;28;20083;-63
2023/08/28 03:56:44;;;;;;;6.05;4.97;;;;;;;;;;10339724;28;20083;-63
2023/08/28 04:01:44;;;;;;;6.50;5.20;;;;;;;;;;10330719;28;20055;-63
2023/08/28 04:06:42;;;;;;;9.25;6.03;;;;;;;;;;10338628;28;20091;-63
2023/08/28 04:11:41;;;;;;;7.90;4.40;;;;;;;;;;10338999;28;20064;-63
2023/08/28 04:16:39;;;;;;;10.50;5.18;;;;;;;;;;10356917;28;20060;-63
2023/08/28 04:21:39;;;;;;;11.48;4.85;;;;;;;;;;10338234;28;20092;-62
2023/08/28 04:26:37;;;;;;;12.57;5.78;;;;;;;;;;10356762;28;20075;-63
2023/08/28 04:31:35;;;;;;;11.50;5.28;;;;;;;;;;10344475;28;20850;-62
2023/08/28 04:36:34;;;;;;;7.72;5.50;;;;;;;;;;10333951;28;20051;-63
2023/08/28 04:41:33;;;;;;;12.35;5.03;;;;;;;;;;10340975;28;20067;-63
2023/08/28 04:46:32;;;;;;;8.85;4.97;;;;;;;;;;10318403;28;20071;-63
2023/08/28 04:51:30;;;;;;;9.30;5.47;;;;;;;;;;10309386;28;20087;-63
2023/08/28 04:56:28;;;;;;;15.23;5.65;;;;;;;;;;10323790;28;20071;-63
2023/08/28 05:01:29;;;;;;;11.52;4.78;;;;;;;;;;10338747;28;20071;-63
2023/08/28 05:06:27;;;;;;;7.75;4.78;;;;;;;;;;10337520;28;20071;-65
2023/08/28 05:11:26;;;;;;;11.18;4.93;;;;;;;;;;10337357;28;20078;-63
2023/08/28 05:16:24;;;;;;;7.93;4.63;;;;;;;;;;10355368;28;20247;-63
2023/08/28 05:21:26;;;;;;;8.27;4.50;;;;;;;;;;10337128;28;20079;-63
2023/08/28 05:26:24;;;;;;;5.93;4.80;;;;;;;;;;10354687;28;20087;-62
2023/08/28 05:31:23;;;;;;;5.53;4.85;;;;;;;;;;10325477;28;20075;-63
2023/08/28 05:36:21;;;;;;;9.52;4.68;;;;;;;;;;10324244;28;20072;-63
2023/08/28 05:41:21;;;;;;;7.10;4.38;;;;;;;;;;10328388;28;20075;-63
2023/08/28 05:46:19;;;;;;;10.88;5.10;;;;;;;;;;10313727;28;20122;-64
2023/08/28 05:51:17;;;;;;;10.45;5.15;;;;;;;;;;10337059;28;20075;-62
2023/08/28 05:56:16;;;;;;;7.22;5.45;;;;;;;;;;10346479;28;20070;-62
2023/08/28 06:01:15;;;;;;;12.85;5.03;;;;;;;;;;10324331;28;20064;-62
2023/08/28 06:06:15;;;;;;;7.20;5.18;;;;;;;;;;10313384;28;20073;-62
2023/08/28 06:11:13;;;;;;;6.72;4.70;;;;;;;;;;10337024;28;20734;-63
2023/08/28 06:16:11;;;;;;;8.80;5.15;;;;;;;;;;10360270;28;20067;-63
2023/08/28 06:21:11;;;;;;;7.55;4.78;;;;;;;;;;10333275;28;20064;-61
2023/08/28 06:26:10;;;;;;;7.05;3.97;;;;;;;;;;10358072;28;20091;-61
2023/08/28 06:31:08;;;;;;;6.88;5.60;;;;;;;;;;10360885;28;20070;-62
2023/08/28 06:36:07;;;;;;;4.75;2.97;;;;;;;;;;10357400;28;20071;-61
2023/08/28 06:41:06;;;;;;;8.48;4.50;;;;;;;;;;10347156;28;20095;-62
2023/08/28 06:46:05;;;;;;;10.27;5.43;;;;;;;;;;10359588;28;20087;-62
2023/08/28 06:51:03;;;;;;;8.70;5.80;;;;;;;;;;10359870;28;20075;-61
2023/08/28 06:56:01;;;;;;;12.10;7.25;;;;;;;;;;10361081;28;20457;-63
2023/08/28 07:01:01;;;;;;;13.40;6.47;;;;;;;;;;10360437;28;20460;-62
2023/08/28 07:05:59;;;;;;;14.77;6.55;;;;;;;;;;10358641;28;20103;-63
2023/08/28 07:10:57;;;;;;;12.13;5.30;;;;;;;;;;10359763;28;20075;-62
2023/08/28 07:15:56;;;;;;;4.45;3.60;;;;;;;;;;10359413;28;20361;-63
2023/08/28 07:20:56;;;;;;;3.63;3.25;;;;;;;;;;10359123;28;20059;-63
2023/08/28 07:25:54;;;;;;;4.60;3.30;;;;;;;;;;10358189;28;20068;-63
2023/08/28 07:30:56;;;;;;;4.30;3.88;;;;;;;;;;10346323;28;20091;-63
2023/08/28 07:35:56;;;;;;;9.75;4.40;;;;;;;;;;10358872;28;20063;-62
2023/08/28 07:40:54;;;;;;;4.03;3.58;;;;;;;;;;10357046;28;20540;-62
2023/08/28 07:45:52;;;;;;;4.00;3.63;;;;;;;;;;10358080;28;20078;-60
2023/08/28 07:50:50;;;;;;;8.15;3.17;;;;;;;;;;10358296;28;20157;-61
2023/08/28 07:55:50;;;;;;;8.20;3.78;;;;;;;;;;10357315;28;20068;-62
2023/08/28 08:00:48;;;;;;;5.07;3.67;;;;;;;;;;10357621;28;20111;-63
2023/08/28 08:05:51;;;;;;;8.95;3.80;;;;;;;;;;10357441;28;20064;-61
2023/08/28 08:10:51;;;;;;;8.63;3.85;;;;;;;;;;10357540;28;20068;-61
2023/08/28 08:15:49;;;;;;;10.88;3.35;;;;;;;;;;10356796;28;20059;-63
2023/08/28 08:20:48;;;;;;;12.45;4.05;;;;;;;;;;10356707;28;20083;-63
2023/08/28 08:25:46;;;;;;;7.05;3.78;;;;;;;;;;10355707;28;20375;-62
2023/08/28 08:30:46;;;;;;;7.22;3.60;;;;;;;;;;10356667;28;20063;-62
2023/08/28 08:35:44;;;;;;;7.75;3.47;;;;;;;;;;10343265;28;20064;-62
2023/08/28 08:40:43;;;;;;;5.38;3.13;;;;;;;;;;10356108;28;20082;-62
2023/08/28 08:45:42;;;;;;;4.15;3.13;;;;;;;;;;10337637;28;20127;-63
2023/08/28 08:50:43;;;;;;;5.00;3.08;;;;;;;;;;10355736;28;20076;-63
2023/08/28 08:55:43;;;;;;;5.18;3.30;;;;;;;;;;10366994;28;20492;-64
2023/08/28 09:00:43;;;;;;;6.13;3.05;;;;;;;;;;10355588;28;20082;-63
2023/08/28 09:05:44;;;;;;;4.13;3.13;;;;;;;;;;10355533;28;20044;-63
2023/08/28 09:10:44;;;;;;;4.28;3.85;;;;;;;;;;10355138;28;20513;-63
2023/08/28 09:15:42;;;;;;;4.03;3.13;;;;;;;;;;10354807;28;20095;-62
2023/08/28 09:20:40;;;;;;;3.97;2.95;;;;;;;;;;10353495;28;20064;-62
2023/08/28 09:25:40;;;;;;;4.50;2.88;;;;;;;;;;10352173;28;20082;-65
2023/08/28 09:30:38;;;;;;;3.67;2.47;;;;;;;;;;10340701;28;20078;-66
2023/08/28 09:35:37;;;;;;;4.43;2.70;;;;;;;;;;10339836;28;20088;-63
2023/08/28 09:40:37;;;;;;;4.57;2.75;;;;;;;;;;10340507;28;20465;-61
2023/08/28 09:45:37;;;;;;;3.72;2.60;;;;;;;;;;10340473;28;20059;-62
2023/08/28 09:50:36;;;;;;;5.68;3.00;;;;;;;;;;10352961;28;20072;-61
2023/08/28 09:55:37;;;;;;;5.07;3.00;;;;;;;;;;10331813;28;20476;-60
2023/08/28 10:00:38;;;;;;;6.00;3.42;;;;;;;;;;10353683;28;20074;-60
2023/08/28 10:05:37;;;;;;;5.40;2.78;;;;;;;;;;10348067;28;20076;-60
2023/08/28 10:10:35;;;;;;;3.97;3.17;;;;;;;;;;10336729;28;20464;-60
2023/08/28 10:15:34;;;;;;;6.07;3.20;;;;;;;;;;10323625;28;20559;-61
2023/08/28 10:20:34;;;;;;;5.07;2.95;;;;;;;;;;10349699;28;20531;-60
2023/08/28 10:25:34;;;;;;;5.72;3.38;;;;;;;;;;10325053;28;20501;-60
2023/08/28 10:30:33;;;;;;;3.78;2.95;;;;;;;;;;10337533;28;20072;-60
2023/08/28 10:35:31;;;;;;;5.70;3.33;;;;;;;;;;10334946;28;20056;-63
2023/08/28 10:40:31;;;;;;;5.50;3.40;;;;;;;;;;10342136;28;20083;-61
2023/08/28 10:45:30;;;;;;;7.13;2.80;;;;;;;;;;10323931;28;20067;-59
2023/08/28 10:50:34;;;;;;;8.35;3.00;;;;;;;;;;10360679;28;20492;-59
2023/08/28 10:55:36;;;;;;;4.50;2.97;;;;;;;;;;10360447;28;20433;-59
2023/08/28 11:00:35;;;;;;;4.95;2.70;;;;;;;;;;10343768;28;20485;-59
2023/08/28 11:05:34;;;;;;;4.55;2.83;;;;;;;;;;10338038;28;20151;-60
2023/08/28 11:10:32;;;;;;;6.15;3.08;;;;;;;;;;10327627;28;20080;-59
2023/08/28 11:15:32;;;;;;;6.15;3.53;;;;;;;;;;10343945;28;20068;-60
2023/08/28 11:20:36;;;;;;;5.95;3.13;;;;;;;;;;10340683;28;20075;-60
2023/08/28 11:25:37;;;;;;;7.80;3.30;;;;;;;;;;10336671;28;20082;-60
2023/08/28 11:30:37;;;;;;;5.35;2.92;;;;;;;;;;10328524;28;20076;-61
2023/08/28 11:35:35;;;;;;;4.03;2.67;;;;;;;;;;10344248;28;20075;-61
2023/08/28 11:40:34;;;;;;;4.93;3.20;;;;;;;;;;10334509;28;20077;-61
2023/08/28 11:45:32;;;;;;;7.32;3.42;;;;;;;;;;10344810;28;20067;-61
2023/08/28 11:50:32;;;;;;;3.85;2.85;;;;;;;;;;10342131;28;20064;-60
2023/08/28 11:55:33;;;;;;;4.10;2.33;;;;;;;;;;10335260;28;20071;-61
2023/08/28 12:00:32;;;;;;;6.68;2.65;;;;;;;;;;10350667;28;20072;-61
2023/08/28 12:05:32;;;;;;;6.20;2.70;;;;;;;;;;10333678;28;20074;-62
2023/08/28 12:10:32;;;;;;;5.13;2.60;;;;;;;;;;10332599;28;20078;-61
2023/08/28 12:15:32;;;;;;;4.38;3.00;;;;;;;;;;10342408;28;20072;-62
2023/08/28 12:20:33;;;;;;;6.85;3.20;;;;;;;;;;10326931;28;20120;-61
2023/08/28 12:25:32;;;;;;;5.22;2.92;;;;;;;;;;10332614;28;20472;-61
2023/08/28 12:30:30;;;;;;;7.35;5.07;;;;;;;;;;10340776;28;20076;-61
2023/08/28 12:35:28;;;;;;;5.90;2.92;;;;;;;;;;10356067;28;20458;-62
2023/08/28 12:40:35;;;;;;;9.18;2.55;;;;;;;;;;10343744;28;20076;-60
2023/08/28 12:45:34;;;;;;;10.20;3.10;;;;;;;;;;10344697;28;20075;-60
2023/08/28 12:50:32;;;;;;;7.95;2.58;;;;;;;;;;10329816;28;20078;-60
2023/08/28 12:55:30;;;;;;;4.30;2.78;;;;;;;;;;10328140;28;20505;-61
2023/08/28 13:00:30;;;;;;;6.00;2.78;;;;;;;;;;10345006;28;20099;-61
2023/08/28 13:05:28;;;;;;;5.88;2.83;;;;;;;;;;10341113;28;20070;-61
2023/08/28 13:10:26;;;;;;;4.90;2.70;;;;;;;;;;10346700;28;20071;-60
2023/08/28 13:15:24;;;;;;;7.78;2.90;;;;;;;;;;10350891;28;20505;-61
2023/08/28 13:20:26;;;;;;;5.40;2.80;;;;;;;;;;10350284;28;20560;-61
2023/08/28 13:25:25;;;;;;;7.67;3.37;;;;;;;;;;10352473;28;20076;-60
2023/08/28 13:30:23;;;;;;;6.13;3.00;;;;;;;;;;10354864;28;20810;-61
2023/08/28 13:35:21;;;;;;;8.68;3.92;;;;;;;;;;10354395;28;20470;-61
2023/08/28 13:40:21;;;;;;;10.25;2.88;;;;;;;;;;10352460;28;20071;-61
2023/08/28 13:45:19;;;;;;;6.78;2.70;;;;;;;;;;10350049;28;20474;-61
2023/08/28 13:50:18;;;;;;;8.80;3.20;;;;;;;;;;10331402;28;20072;-61
2023/08/28 13:55:16;;;;;;;6.10;3.15;;;;;;;;;;10339215;28;20470;-61
2023/08/28 14:00:16;;;;;;;4.13;2.70;;;;;;;;;;10341665;28;20094;-61
2023/08/28 14:05:14;;;;;;;8.70;2.80;;;;;;;;;;10345720;28;20370;-61
2023/08/28 14:10:12;;;;;;;8.27;2.97;;;;;;;;;;10321082;28;20084;-61
2023/08/28 14:15:11;;;;;;;8.73;3.15;;;;;;;;;;10360045;28;20067;-62
2023/08/28 14:20:11;;;;;;;4.10;2.42;;;;;;;;;;10361783;28;20075;-62
2023/08/28 14:25:10;;;;;;;8.13;3.33;;;;;;;;;;10361204;28;20086;-60
2023/08/28 14:30:08;;;;;;;10.05;3.15;;;;;;;;;;10336884;28;20067;-61
2023/08/28 14:35:07;;;;;;;7.65;3.33;;;;;;;;;;10358053;28;20086;-61
2023/08/28 14:40:08;;;;;;;6.43;3.55;;;;;;;;;;10359425;28;20079;-61
2023/08/28 14:45:07;;;;;;;6.63;3.13;;;;;;;;;;10358408;28;20076;-60
2023/08/28 14:50:06;;;;;;;7.05;3.50;;;;;;;;;;10358783;28;20087;-60
2023/08/28 14:55:05;;;;;;;6.70;2.92;;;;;;;;;;10359027;28;20535;-61
2023/08/28 15:00:07;;;;;;;5.97;3.13;;;;;;;;;;10359293;28;20516;-61
2023/08/28 15:05:06;;;;;;;7.77;3.10;;;;;;;;;;10340442;28;20048;-62
2023/08/28 15:10:05;;;;;;;5.30;2.55;;;;;;;;;;10359188;28;20349;-60
2023/08/28 15:15:05;;;;;;;5.60;2.90;;;;;;;;;;10359833;28;20076;-61
2023/08/28 15:20:04;;;;;;;5.88;2.55;;;;;;;;;;10359471;28;20464;-61
2023/08/28 15:25:04;;;;;;;6.03;3.33;;;;;;;;;;10357744;28;20452;-60
2023/08/28 15:30:02;;;;;;;6.97;3.30;;;;;;;;;;10357450;28;20075;-60
2023/08/28 15:35:03;;;;;;;7.18;3.58;;;;;;;;;;10358559;28;20342;-61
2023/08/28 15:40:02;;;;;;;18.98;3.95;;;;;;;;;;10350899;28;20075;-60
2023/08/28 15:45:02;;;;;;;4.80;3.38;;;;;;;;;;10339652;28;20079;-62
2023/08/28 15:50:03;;;;;;;7.75;3.55;;;;;;;;;;10333010;28;20075;-61
2023/08/28 15:55:01;;;;;;;7.75;2.65;;;;;;;;;;10349921;28;20492;-61
2023/08/28 16:00:00;;;;;;;7.75;3.90;;;;;;;;;;10342153;28;20071;-61
2023/08/28 16:04:58;;;;;;;7.68;3.38;;;;;;;;;;10348214;28;20552;-61
2023/08/28 16:09:57;;;;;;;10.00;3.38;;;;;;;;;;10345796;28;20091;-61
2023/08/28 16:14:55;;;;;;;9.98;4.00;;;;;;;;;;10337092;28;20061;-60
2023/08/28 16:19:54;;;;;;;9.32;2.97;;;;;;;;;;10346990;28;20064;-60
2023/08/28 16:24:52;;;;;;;5.90;3.30;;;;;;;;;;10337634;28;20080;-60
2023/08/28 16:29:51;;;;;;;6.05;3.85;;;;;;;;;;10327807;28;20111;-60
2023/08/28 16:34:53;;;;;;;4.93;4.05;;;;;;;;;;10339673;28;20057;-61
2023/08/28 16:39:51;;;;;;;7.78;4.15;;;;;;;;;;10336917;28;20075;-61
2023/08/28 16:44:49;;;;;;;6.32;3.67;;;;;;;;;;10337308;28;20078;-61
2023/08/28 16:49:49;;;;;;;8.90;3.78;;;;;;;;;;10349891;28;20080;-61
2023/08/28 16:54:48;;;;;;;5.60;3.88;;;;;;;;;;10337370;28;20082;-61
2023/08/28 16:59:46;;;;;;;7.43;4.03;;;;;;;;;;10334985;28;20068;-61
2023/08/28 17:04:45;;;;;;;5.65;3.75;;;;;;;;;;10330895;28;20075;-62
2023/08/28 17:09:45;;;;;;;6.97;3.97;;;;;;;;;;10336612;28;20092;-61
2023/08/28 17:14:44;;;;;;;6.13;3.97;;;;;;;;;;10309347;28;20110;-61
2023/08/28 17:19:42;;;;;;;9.25;4.25;;;;;;;;;;10333511;28;20060;-61
2023/08/28 17:24:40;;;;;;;4.90;3.53;;;;;;;;;;10345548;28;20083;-61
2023/08/28 17:29:40;;;;;;;9.77;4.03;;;;;;;;;;10352428;28;20079;-61
2023/08/28 17:34:38;;;;;;;8.77;3.88;;;;;;;;;;10346869;28;20059;-61
2023/08/28 17:39:36;;;;;;;7.35;3.80;;;;;;;;;;10337777;28;20083;-61
2023/08/28 17:44:34;;;;;;;9.55;3.75;;;;;;;;;;10324585;28;20091;-60
2023/08/28 17:49:34;;;;;;;7.43;3.75;;;;;;;;;;10338842;28;20080;-60
2023/08/28 17:54:32;;;;;;;6.13;4.03;;;;;;;;;;10347577;28;20071;-60
2023/08/28 17:59:31;;;;;;;10.18;3.85;;;;;;;;;;10366086;28;20079;-60
2023/08/28 18:04:29;;;;;;;8.10;4.00;;;;;;;;;;10362430;28;20071;-61
2023/08/28 18:09:29;;;;;;;5.75;3.30;;;;;;;;;;10354983;28;20080;-60
2023/08/28 18:14:27;;;;;;;5.05;3.40;;;;;;;;;;10352969;28;20076;-61
2023/08/28 18:19:25;;;;;;;9.55;4.57;;;;;;;;;;10358802;28;20075;-61
2023/08/28 18:24:23;;;;;;;7.63;3.47;;;;;;;;;;10362730;28;20079;-61
2023/08/28 18:29:23;;;;;;;9.18;5.15;;;;;;;;;;10350306;28;20055;-61
2023/08/28 18:34:23;;;;;;;8.95;4.05;;;;;;;;;;10361500;28;20083;-61
2023/08/28 18:39:21;;;;;;;6.78;3.67;;;;;;;;;;10354772;28;20074;-61
2023/08/28 18:44:21;;;;;;;5.10;3.58;;;;;;;;;;10362150;28;20071;-61
2023/08/28 18:49:20;;;;;;;8.60;4.07;;;;;;;;;;10365957;28;20075;-61
2023/08/28 18:54:20;;;;;;;6.20;4.18;;;;;;;;;;10366528;28;20090;-62
2023/08/28 18:59:18;;;;;;;10.93;4.45;;;;;;;;;;10360874;28;20078;-61
2023/08/28 19:04:16;;;;;;;9.93;5.70;;;;;;;;;;10350275;28;20062;-61
2023/08/28 19:09:16;;;;;;;6.05;4.32;;;;;;;;;;10363748;28;20076;-61
2023/08/28 19:14:14;;;;;;;5.30;4.25;;;;;;;;;;10349304;28;20122;-60
2023/08/28 19:19:13;;;;;;;6.20;4.10;;;;;;;;;;10346530;28;20063;-60
2023/08/28 19:24:11;;;;;;;7.85;4.10;;;;;;;;;;10354086;28;20071;-61
2023/08/28 19:29:10;;;;;;;7.57;4.22;;;;;;;;;;10356210;28;20079;-61
2023/08/28 19:34:09;;;;;;;10.95;4.65;;;;;;;;;;10339340;28;20488;-61
2023/08/28 19:39:08;;;;;;;7.50;4.78;;;;;;;;;;10351123;28;20425;-61
2023/08/28 19:44:06;;;;;;;7.28;4.93;;;;;;;;;;10337793;28;20088;-61
2023/08/28 19:49:06;;;;;;;6.75;4.65;;;;;;;;;;10343326;28;20083;-61
2023/08/28 19:54:04;;;;;;;9.80;4.53;;;;;;;;;;10356817;28;20107;-61
2023/08/28 19:59:03;;;;;;;6.53;4.07;;;;;;;;;;10332421;28;20086;-61
2023/08/28 20:04:01;;;;;;;10.38;4.75;;;;;;;;;;10365561;28;20087;-61
2023/08/28 20:09:01;;;;;;;9.80;5.07;;;;;;;;;;10337427;28;20926;-61
2023/08/28 20:13:59;;;;;;;13.02;4.60;;;;;;;;;;10336994;28;20080;-61
2023/08/28 20:18:57;;;;;;;8.05;3.85;;;;;;;;;;10340314;28;20650;-61
2023/08/28 20:23:55;;;;;;;10.68;5.30;;;;;;;;;;10340266;28;20499;-60
2023/08/28 20:28:55;;;;;;;10.73;4.43;;;;;;;;;;10339856;28;20086;-60
2023/08/28 20:33:53;;;;;;;5.40;4.20;;;;;;;;;;10337720;28;20079;-60
2023/08/28 20:38:52;;;;;;;9.48;6.40;;;;;;;;;;10338865;28;20060;-61
2023/08/28 20:43:50;;;;;;;8.45;4.85;;;;;;;;;;10341828;28;20075;-61
2023/08/28 20:48:50;;;;;;;12.88;4.53;;;;;;;;;;10339466;28;20059;-61
2023/08/28 20:53:48;;;;;;;5.18;4.55;;;;;;;;;;10336208;28;20079;-61
2023/08/28 20:58:46;;;;;;;9.23;4.93;;;;;;;;;;10339712;28;20072;-61
2023/08/28 21:03:44;;;;;;;5.88;4.30;;;;;;;;;;10339870;28;20075;-61
2023/08/28 21:08:46;;;;;;;8.40;4.85;;;;;;;;;;10340542;28;20074;-61
2023/08/28 21:13:44;;;;;;;7.28;4.35;;;;;;;;;;10335558;28;20075;-61
2023/08/28 21:18:42;;;;;;;8.73;4.65;;;;;;;;;;10339058;28;20071;-60
2023/08/28 21:23:40;;;;;;;8.65;4.43;;;;;;;;;;10343096;28;20091;-60
2023/08/28 21:28:40;;;;;;;6.32;4.20;;;;;;;;;;10334675;28;20071;-61
2023/08/28 21:33:38;;;;;;;7.40;4.00;;;;;;;;;;10339157;28;20067;-60
2023/08/28 21:38:37;;;;;;;6.68;4.60;;;;;;;;;;10337691;28;20503;-61
2023/08/28 21:43:35;;;;;;;5.93;3.90;;;;;;;;;;10334790;28;20075;-60
2023/08/28 21:48:34;;;;;;;4.53;4.03;;;;;;;;;;10337237;28;20072;-61
2023/08/28 21:53:51;;;;;;;4.47;3.83;;;;;;;;;;10339816;28;20524;-60
2023/08/28 21:59:08;;;;;;;8.68;4.55;;;;;;;;;;10340714;28;20068;-60
2023/08/28 22:04:26;;;;;;;6.10;4.70;;;;;;;;;;10342830;28;20474;-61
2023/08/28 22:09:43;;;;;;;7.13;4.93;;;;;;;;;;10339963;28;20298;-61
2023/08/28 22:14:56;;;;;;;4.82;4.20;;;;;;;;;;10338563;28;20079;-61
2023/08/28 22:19:59;;;;;;;8.55;4.22;;;;;;;;;;10334903;28;20076;-60
2023/08/28 22:24:57;;;;;;;6.20;4.28;;;;;;;;;;10337377;28;20080;-60
2023/08/28 22:29:55;;;;;;;6.80;3.90;;;;;;;;;;10337138;28;20544;-60
2023/08/28 22:34:54;;;;;;;4.40;3.85;;;;;;;;;;10339726;28;20465;-60
2023/08/28 22:39:53;;;;;;;5.60;4.55;;;;;;;;;;10345546;28;20496;-61
2023/08/28 22:44:51;;;;;;;8.38;4.05;;;;;;;;;;10343072;28;20095;-61
2023/08/28 22:49:50;;;;;;;7.15;4.47;;;;;;;;;;10342608;28;20533;-61
2023/08/28 22:54:48;;;;;;;9.88;4.47;;;;;;;;;;10346839;28;20078;-61
2023/08/28 22:59:48;;;;;;;5.57;4.25;;;;;;;;;;10345712;28;20079;-61
2023/08/28 23:04:46;;;;;;;9.48;4.78;;;;;;;;;;10342488;28;20071;-59
2023/08/28 23:09:44;;;;;;;6.30;4.35;;;;;;;;;;10357604;28;20067;-61
2023/08/28 23:14:45;;;;;;;7.65;4.75;;;;;;;;;;10344428;28;20102;-60
2023/08/28 23:19:45;;;;;;;6.32;3.95;;;;;;;;;;10341178;28;20083;-60
2023/08/28 23:24:43;;;;;;;4.57;4.15;;;;;;;;;;10342911;28;20075;-61
2023/08/28 23:29:42;;;;;;;6.82;4.18;;;;;;;;;;10342738;28;20457;-61
2023/08/28 23:34:40;;;;;;;5.40;3.72;;;;;;;;;;10341664;28;20471;-61
2023/08/28 23:39:40;;;;;;;8.85;4.40;;;;;;;;;;10342943;28;20704;-60
2023/08/28 23:44:38;;;;;;;4.45;3.70;;;;;;;;;;10343431;28;20085;-60
2023/08/28 23:49:37;;;;;;;7.00;4.55;;;;;;;;;;10343099;28;20076;-60
2023/08/28 23:54:35;;;;;;;6.65;4.10;;;;;;;;;;10342077;28;20068;-60
2023/08/28 23:59:34;;;;;;;6.10;4.18;;;;;;;;;;10339963;28;20079;-60
